SBSL/SLZ METAR and TAF weather

Enter ICAO airport designator
Station Type Date Time Source
SBSL METAR 2021/04/18 02:00 UTC NOAA

SBSL 180200Z 04002KT 9999 FEW017 26/25 Q1011


Station Type Date Time Source
SBSL Decoded METAR 2021/04/18 02:00 UTC NOAA

Sao Luiz Aeroporto , Brazil (SBSL) 02-36S 044-14W 53M
Apr 17, 2021 - 10:00 PM EDT / 2021.04.18 0200 UTC
Wind: from the NE (040 degrees) at 2 MPH (2 KT):0
Visibility: greater than 7 mile(s):0
Sky conditions: mostly clear
Temperature: 78 F (26 C)
Dew Point: 77 F (25 C)
Relative Humidity: 94%
Pressure (altimeter): 29.85 in. Hg (1011 hPa)
ob: SBSL 180200Z 04002KT 9999 FEW017 26/25 Q1011
cycle: 2

Station Type Date Time Source
SBSL TAF 2021/04/18 00:00 UTC NOAA

TAF SBSL 172050Z 1800/1824 05015KT 8000 BKN020 FEW025TCU TN25/1808Z TX28/1817Z PROB40 1800/1804 4000 SHRA
BECMG 1810/1812 10007KT BKN018
BECMG 1815/1817 07015KT 7000 BKN015 FEW030TCU PROB40 1819/1822 4500 SHRA
RMK PGU

Example: see airport list